Time,TemperatureF,DewpointF,PressureIn,WindDirection,WindDirectionDegrees,WindSpeedMPH,WindSpeedGustMPH,Humidity,HourlyPrecipIn,Conditions,Clouds,dailyrainin,SoftwareType,DateUTC
2013-08-03 13:19:00,87.3,76.7,30.11,SSW,197,4.6,5.8,71,0.41,,---,0.02,VWS V13.01,2013-08-03 17:19:00,
2013-08-03 13:20:00,87.4,76.8,30.11,South,186,2.9,4.6,71,0.41,,---,0.02,VWS V13.01,2013-08-03 17:20:00,
2013-08-03 13:25:00,87.5,76.3,30.11,WNW,300,1.9,8.3,70,0.41,,---,0.02,VWS V13.01,2013-08-03 17:25:00,
2013-08-03 13:30:00,87.6,76.3,30.11,South,177,3.0,7.0,69,0.41,,---,0.02,VWS V13.01,2013-08-03 17:30:00,
2013-08-03 13:35:00,87.8,76.3,30.10,SSW,201,4.3,6.5,69,0.41,,---,0.02,VWS V13.01,2013-08-03 17:35:00,
2013-08-03 13:40:00,87.6,76.5,30.10,SSE,166,4.7,7.1,70,0.41,,---,0.02,VWS V13.01,2013-08-03 17:40:00,
2013-08-03 13:45:00,87.7,76.4,30.10,SSW,194,5.6,6.8,69,0.41,,---,0.02,VWS V13.01,2013-08-03 17:45:00,
2013-08-03 13:50:00,87.9,75.1,30.10,SSE,165,5.4,7.4,66,0.41,,---,0.02,VWS V13.01,2013-08-03 17:50:00,
2013-08-03 13:55:00,87.8,75.8,30.10,South,172,1.4,5.8,68,0.41,,---,0.02,VWS V13.01,2013-08-03 17:55:00,
2013-08-03 14:00:00,87.9,76.0,30.09,South,186,2.2,4.0,68,0.41,,---,0.02,VWS V13.01,2013-08-03 18:00:00,
2013-08-03 14:05:00,88.2,76.2,30.10,South,174,1.7,6.2,68,0.41,,---,0.02,VWS V13.01,2013-08-03 18:05:00,
2013-08-03 14:10:00,88.6,76.0,30.10,South,169,2.1,4.8,66,0.41,,---,0.02,VWS V13.01,2013-08-03 18:10:00,
2013-08-03 14:15:00,88.7,75.9,30.10,South,191,9.8,9.8,66,0.41,,---,0.02,VWS V13.01,2013-08-03 18:15:00,
2013-08-03 14:20:00,88.4,75.2,30.11,SW,221,2.7,8.9,65,0.00,,---,0.02,VWS V13.01,2013-08-03 18:20:00,
2013-08-03 14:25:00,87.7,75.1,30.10,South,179,8.0,8.8,66,0.00,,---,0.02,VWS V13.01,2013-08-03 18:25:00,
2013-08-03 14:30:00,87.8,75.7,30.10,South,179,6.2,9.7,68,0.00,,---,0.02,VWS V13.01,2013-08-03 18:30:00,
2013-08-03 14:35:00,87.5,75.7,30.11,South,179,3.8,4.8,68,0.00,,---,0.02,VWS V13.01,2013-08-03 18:35:00,
2013-08-03 14:40:00,85.1,73.4,30.12,NNW,328,7.8,8.9,68,0.00,,---,0.02,VWS V13.01,2013-08-03 18:40:00,
2013-08-03 14:45:00,81.8,72.9,30.11,SW,233,5.1,10.7,75,0.00,,---,0.02,VWS V13.01,2013-08-03 18:45:00,
2013-08-03 14:50:00,80.4,73.3,30.11,West,269,7.8,10.6,79,0.00,,---,0.02,VWS V13.01,2013-08-03 18:50:00,
2013-08-03 14:55:00,78.9,73.7,30.12,WSW,252,5.1,12.6,84,0.07,,---,0.09,VWS V13.01,2013-08-03 18:55:00,
2013-08-03 15:00:00,78.9,73.9,30.12,NW,319,5.3,6.4,85,0.10,,---,0.12,VWS V13.01,2013-08-03 19:00:00,
2013-08-03 15:05:00,78.0,73.5,30.12,NNW,330,6.0,7.5,86,0.12,,---,0.14,VWS V13.01,2013-08-03 19:05:00,
2013-08-03 15:10:00,76.9,73.4,30.12,NNE,27,6.2,6.2,89,0.12,,---,0.14,VWS V13.01,2013-08-03 19:10:00,
2013-08-03 15:15:00,75.8,72.9,30.13,North,353,5.0,5.5,91,0.13,,---,0.15,VWS V13.01,2013-08-03 19:15:00,
2013-08-03 15:20:00,75.3,72.5,30.13,NE,53,2.9,3.9,91,0.13,,---,0.15,VWS V13.01,2013-08-03 19:20:00,
2013-08-03 15:25:00,75.1,72.3,30.13,NNE,17,3.7,3.7,91,0.13,,---,0.15,VWS V13.01,2013-08-03 19:25:00,
2013-08-03 15:30:00,74.9,72.1,30.13,ENE,62,0.0,0.9,91,0.13,,---,0.15,VWS V13.01,2013-08-03 19:30:00,
2013-08-03 15:35:00,74.7,72.1,30.13,ENE,75,3.7,6.3,92,0.13,,---,0.15,VWS V13.01,2013-08-03 19:35:00,
2013-08-03 15:41:00,74.7,72.1,30.13,North,11,0.0,1.7,92,0.14,,---,0.16,VWS V13.01,2013-08-03 19:41:00,
2013-08-03 15:46:00,74.7,72.0,30.13,NNW,338,0.8,1.6,91,0.15,,---,0.17,VWS V13.01,2013-08-03 19:46:00,
2013-08-03 15:51:00,74.8,72.2,30.13,NNE,30,0.0,0.0,92,0.16,,---,0.18,VWS V13.01,2013-08-03 19:51:00,
2013-08-03 15:57:00,74.6,71.8,30.12,NNW,332,0.6,3.0,91,0.10,,---,0.20,VWS V13.01,2013-08-03 19:57:00,
2013-08-03 16:02:00,74.3,71.6,30.12,WNW,295,0.0,0.0,91,0.08,,---,0.21,VWS V13.01,2013-08-03 20:02:00,
2013-08-03 16:07:00,74.2,71.6,30.11,WNW,295,0.0,0.0,92,0.08,,---,0.22,VWS V13.01,2013-08-03 20:07:00,
2013-08-03 16:12:00,74.2,71.6,30.11,NNW,330,1.1,1.4,92,0.08,,---,0.22,VWS V13.01,2013-08-03 20:12:00,
2013-08-03 16:17:00,74.3,71.8,30.10,NNE,18,0.0,0.6,92,0.08,,---,0.23,VWS V13.01,2013-08-03 20:17:00,
2013-08-03 16:19:00,74.3,71.7,30.11,NNE,18,0.0,0.0,92,0.08,,---,0.23,VWS V13.01,2013-08-03 20:19:00,
2013-08-03 16:24:00,74.2,71.6,30.10,NNE,18,0.0,0.0,92,0.09,,---,0.24,VWS V13.01,2013-08-03 20:24:00,
2013-08-03 16:29:00,74.3,72.0,30.10,NNE,18,0.0,0.0,92,0.10,,---,0.25,VWS V13.01,2013-08-03 20:29:00,
2013-08-03 16:34:00,74.3,71.9,30.10,NNE,18,0.0,0.0,92,0.11,,---,0.26,VWS V13.01,2013-08-03 20:34:00,
2013-08-03 16:39:00,74.3,72.0,30.10,NNE,18,0.0,0.0,92,0.12,,---,0.27,VWS V13.01,2013-08-03 20:39:00,
2013-08-03 16:44:00,74.5,72.2,30.11,NNE,18,0.0,0.0,92,0.11,,---,0.28,VWS V13.01,2013-08-03 20:44:00,
2013-08-03 16:49:00,74.5,72.2,30.11,NNE,18,0.0,0.0,93,0.10,,---,0.28,VWS V13.01,2013-08-03 20:49:00,
2013-08-03 16:54:00,74.6,72.3,30.12,NNW,338,0.8,2.1,93,0.10,,---,0.29,VWS V13.01,2013-08-03 20:54:00,
2013-08-03 16:59:00,74.5,72.3,30.12,NW,322,0.0,0.0,93,0.11,,---,0.31,VWS V13.01,2013-08-03 20:59:00,
2013-08-03 17:04:00,74.6,72.4,30.12,NW,322,0.0,0.0,93,0.11,,---,0.32,VWS V13.01,2013-08-03 21:04:00,
2013-08-03 17:09:00,74.8,72.7,30.11,NW,322,0.0,0.0,93,0.11,,---,0.33,VWS V13.01,2013-08-03 21:09:00,
2013-08-03 17:15:00,74.8,72.8,30.11,NW,322,0.0,0.0,93,0.12,,---,0.35,VWS V13.01,2013-08-03 21:15:00,
2013-08-03 17:20:00,75.0,73.0,30.11,NW,322,0.0,0.0,93,0.12,,---,0.36,VWS V13.01,2013-08-03 21:20:00,
2013-08-03 17:25:00,74.9,72.8,30.11,NW,322,0.0,0.0,93,0.12,,---,0.37,VWS V13.01,2013-08-03 21:25:00,
2013-08-03 17:30:00,74.8,72.7,30.11,North,349,1.2,1.6,93,0.12,,---,0.37,VWS V13.01,2013-08-03 21:30:00,
2013-08-03 17:35:00,74.9,72.9,30.11,NNE,18,0.0,0.0,94,0.12,,---,0.38,VWS V13.01,2013-08-03 21:35:00,
2013-08-03 17:40:00,75.1,73.2,30.11,NNE,14,0.0,0.6,94,0.11,,---,0.38,VWS V13.01,2013-08-03 21:40:00,
2013-08-03 17:45:00,75.1,73.1,30.10,NNE,14,0.0,0.0,94,0.11,,---,0.39,VWS V13.01,2013-08-03 21:45:00,
2013-08-03 17:50:00,74.9,72.9,30.10,NNE,14,0.0,0.0,94,0.11,,---,0.39,VWS V13.01,2013-08-03 21:50:00,
2013-08-03 17:55:00,74.8,72.8,30.10,NNE,14,0.0,0.0,94,0.10,,---,0.39,VWS V13.01,2013-08-03 21:55:00,
2013-08-03 18:00:00,75.1,73.2,30.10,NNE,13,0.0,0.0,94,0.08,,---,0.39,VWS V13.01,2013-08-03 22:00:00,
2013-08-03 18:05:00,75.3,73.4,30.10,NNE,13,0.0,0.0,94,0.07,,---,0.39,VWS V13.01,2013-08-03 22:05:00,
2013-08-03 18:10:00,75.6,73.7,30.10,NNE,13,0.0,0.0,94,0.06,,---,0.39,VWS V13.01,2013-08-03 22:10:00,
2013-08-03 18:16:00,75.4,73.4,30.10,NNE,13,0.0,0.0,94,0.04,,---,0.39,VWS V13.01,2013-08-03 22:16:00,
2013-08-03 18:21:00,75.5,73.5,30.10,NNE,13,0.0,0.0,94,0.04,,---,0.39,VWS V13.01,2013-08-03 22:21:00,
2013-08-03 18:26:00,75.9,73.9,30.10,NNE,13,0.0,0.0,94,0.03,,---,0.39,VWS V13.01,2013-08-03 22:26:00,
2013-08-03 18:31:00,75.8,73.8,30.09,NNE,13,0.0,0.0,93,0.02,,---,0.39,VWS V13.01,2013-08-03 22:31:00,
2013-08-03 18:36:00,75.9,73.9,30.09,NNE,13,0.0,0.0,94,0.01,,---,0.39,VWS V13.01,2013-08-03 22:36:00,
2013-08-03 18:41:00,76.2,74.1,30.09,NNE,13,0.0,0.0,93,0.01,,---,0.39,VWS V13.01,2013-08-03 22:41:00,
2013-08-03 18:46:00,76.1,74.0,30.09,NNE,13,0.0,0.0,93,0.01,,---,0.39,VWS V13.01,2013-08-03 22:46:00,
2013-08-03 18:51:00,76.2,74.2,30.08,NNE,13,0.0,0.0,93,0.00,,---,0.39,VWS V13.01,2013-08-03 22:51:00,
2013-08-03 18:56:00,76.4,74.4,30.09,NNE,13,0.0,0.0,94,0.00,,---,0.39,VWS V13.01,2013-08-03 22:56:00,
2013-08-03 19:01:00,76.4,74.2,30.09,NNE,13,0.0,0.0,93,0.00,,---,0.39,VWS V13.01,2013-08-03 23:01:00,
2013-08-03 19:06:00,76.3,74.1,30.09,NNE,13,0.0,0.0,93,0.00,,---,0.39,VWS V13.01,2013-08-03 23:06:00,
2013-08-03 19:11:00,76.5,74.3,30.08,NNE,13,0.0,0.0,93,0.00,,---,0.39,VWS V13.01,2013-08-03 23:11:00,
2013-08-03 19:16:00,76.7,74.5,30.09,NNE,13,0.0,0.0,93,0.00,,---,0.39,VWS V13.01,2013-08-03 23:16:00,
2013-08-03 19:21:00,76.4,74.2,30.09,NNE,13,0.0,0.0,93,0.00,,---,0.39,VWS V13.01,2013-08-03 23:21:00,
2013-08-03 19:27:00,76.6,74.4,30.10,NNE,13,0.0,0.0,93,0.00,,---,0.39,VWS V13.01,2013-08-03 23:27:00,
2013-08-03 19:33:00,76.5,74.3,30.10,NNE,13,0.0,0.0,93,0.00,,---,0.39,VWS V13.01,2013-08-03 23:33:00,
2013-08-03 19:38:00,76.7,74.6,30.10,NNE,13,0.0,0.0,93,0.00,,---,0.39,VWS V13.01,2013-08-03 23:38:00,
2013-08-03 19:43:00,76.9,74.9,30.10,NNE,13,0.0,0.0,94,0.00,,---,0.39,VWS V13.01,2013-08-03 23:43:00,
2013-08-03 19:48:00,77.0,74.9,30.10,NNE,13,0.0,0.0,93,0.00,,---,0.39,VWS V13.01,2013-08-03 23:48:00,
2013-08-03 19:53:00,77.0,74.8,30.11,NNE,13,0.0,0.0,93,0.00,,---,0.39,VWS V13.01,2013-08-03 23:53:00,
2013-08-03 19:58:00,77.2,75.0,30.11,NNE,13,0.0,0.0,93,0.00,,---,0.39,VWS V13.01,2013-08-03 23:58:00,
2013-08-03 20:03:00,77.3,75.0,30.10,NNE,13,0.0,0.0,93,0.00,,---,0.39,VWS V13.01,2013-08-04 00:03:00,
2013-08-03 20:08:00,77.2,74.8,30.10,NNE,13,0.0,0.0,92,0.00,,---,0.39,VWS V13.01,2013-08-04 00:08:00,
2013-08-03 20:13:00,77.5,75.1,30.11,NNE,13,0.0,0.0,92,0.00,,---,0.39,VWS V13.01,2013-08-04 00:13:00,
2013-08-03 20:18:00,77.5,75.1,30.10,NNE,13,0.0,0.0,92,0.00,,---,0.39,VWS V13.01,2013-08-04 00:18:00,
2013-08-03 20:23:00,77.3,74.9,30.10,NNE,13,0.0,0.0,92,0.00,,---,0.39,VWS V13.01,2013-08-04 00:23:00,
2013-08-03 20:29:00,77.5,75.1,30.10,NNE,13,0.0,0.0,92,0.00,,---,0.39,VWS V13.01,2013-08-04 00:29:00,
2013-08-03 20:34:00,77.3,74.9,30.10,NNE,13,0.0,0.0,92,0.00,,---,0.39,VWS V13.01,2013-08-04 00:34:00,
2013-08-03 20:39:00,77.4,75.1,30.10,NNE,13,0.0,0.0,92,0.00,,---,0.39,VWS V13.01,2013-08-04 00:39:00,
2013-08-03 20:44:00,77.3,75.0,30.11,NNE,13,0.0,0.0,93,0.00,,---,0.39,VWS V13.01,2013-08-04 00:44:00,
2013-08-03 20:49:00,77.4,75.1,30.10,NNE,13,0.0,0.0,92,0.00,,---,0.39,VWS V13.01,2013-08-04 00:49:00,
2013-08-03 20:54:00,77.3,74.9,30.10,NNE,13,0.0,0.0,92,0.00,,---,0.39,VWS V13.01,2013-08-04 00:54:00,
2013-08-03 20:59:00,77.5,75.2,30.10,NNE,13,0.0,0.0,93,0.00,,---,0.39,VWS V13.01,2013-08-04 00:59:00,
2013-08-03 21:04:00,77.8,75.5,30.10,NNE,13,0.0,0.0,93,0.00,,---,0.39,VWS V13.01,2013-08-04 01:04:00,
2013-08-03 21:09:00,77.4,75.1,30.10,NNE,13,0.0,0.0,93,0.00,,---,0.39,VWS V13.01,2013-08-04 01:09:00,
2013-08-03 21:14:00,77.4,75.1,30.10,NNE,13,0.0,0.0,93,0.00,,---,0.39,VWS V13.01,2013-08-04 01:14:00,
2013-08-03 21:19:00,77.1,74.8,30.10,NNE,13,0.0,0.0,93,0.00,,---,0.39,VWS V13.01,2013-08-04 01:19:00,
2013-08-03 21:24:00,77.0,74.7,30.10,NNE,13,0.0,0.0,93,0.00,,---,0.39,VWS V13.01,2013-08-04 01:24:00,
2013-08-03 21:29:00,77.0,74.8,30.11,NNE,13,0.0,0.0,93,0.00,,---,0.39,VWS V13.01,2013-08-04 01:29:00,
2013-08-03 21:34:00,77.1,74.9,30.11,NNE,13,0.0,0.0,93,0.00,,---,0.39,VWS V13.01,2013-08-04 01:34:00,
2013-08-03 21:39:00,76.9,74.8,30.11,NNE,13,0.0,0.0,93,0.00,,---,0.39,VWS V13.01,2013-08-04 01:39:00,
2013-08-03 21:45:00,77.1,75.0,30.11,NNE,13,0.0,0.0,93,0.00,,---,0.39,VWS V13.01,2013-08-04 01:45:00,
2013-08-03 21:49:00,77.0,74.9,30.11,NNE,13,0.0,0.0,93,0.00,,---,0.39,VWS V13.01,2013-08-04 01:49:00,
2013-08-03 21:55:00,77.0,74.9,30.11,NNE,13,0.0,0.0,93,0.00,,---,0.39,VWS V13.01,2013-08-04 01:55:00,
2013-08-03 22:00:00,76.9,74.9,30.12,NNE,13,0.0,0.0,94,0.00,,---,0.39,VWS V13.01,2013-08-04 02:00:00,
2013-08-03 22:05:00,76.9,74.9,30.12,NNE,13,0.0,0.0,94,0.00,,---,0.39,VWS V13.01,2013-08-04 02:05:00,
2013-08-03 22:10:00,76.9,74.9,30.13,NNE,13,0.0,0.0,94,0.00,,---,0.39,VWS V13.01,2013-08-04 02:10:00,
2013-08-03 22:15:00,77.0,75.0,30.13,NNE,13,0.0,0.0,94,0.00,,---,0.39,VWS V13.01,2013-08-04 02:15:00,
2013-08-03 22:20:00,77.1,75.1,30.13,NNE,13,0.0,0.0,94,0.00,,---,0.39,VWS V13.01,2013-08-04 02:20:00,
2013-08-03 22:25:00,76.8,74.8,30.13,NNE,13,0.0,0.0,94,0.00,,---,0.39,VWS V13.01,2013-08-04 02:25:00,
2013-08-03 22:30:00,76.9,75.0,30.13,NNE,13,0.0,0.0,94,0.00,,---,0.39,VWS V13.01,2013-08-04 02:30:00,
2013-08-03 22:35:00,76.9,75.0,30.13,NNE,13,0.0,0.0,94,0.00,,---,0.39,VWS V13.01,2013-08-04 02:35:00,
2013-08-03 22:40:00,77.0,75.1,30.13,NNE,13,0.0,0.0,94,0.00,,---,0.39,VWS V13.01,2013-08-04 02:40:00,
2013-08-03 22:45:00,77.1,75.2,30.14,NNE,13,0.0,0.0,94,0.00,,---,0.39,VWS V13.01,2013-08-04 02:45:00,
2013-08-03 22:50:00,77.2,75.3,30.13,NNE,13,0.0,0.0,94,0.00,,---,0.39,VWS V13.01,2013-08-04 02:50:00,
2013-08-03 22:55:00,77.1,75.2,30.14,NNE,13,0.0,0.0,94,0.00,,---,0.39,VWS V13.01,2013-08-04 02:55:00,
2013-08-03 23:00:00,77.1,75.2,30.14,NNE,13,0.0,0.0,94,0.00,,---,0.39,VWS V13.01,2013-08-04 03:00:00,
2013-08-03 23:05:00,77.1,75.2,30.14,NNE,13,0.0,0.0,94,0.00,,---,0.39,VWS V13.01,2013-08-04 03:05:00,
2013-08-03 23:10:00,77.0,75.1,30.14,NNE,13,0.0,0.0,94,0.00,,---,0.39,VWS V13.01,2013-08-04 03:10:00,
2013-08-03 23:15:00,77.2,75.3,30.14,NNE,13,0.0,0.0,94,0.00,,---,0.39,VWS V13.01,2013-08-04 03:15:00,
2013-08-03 23:20:00,77.1,75.2,30.13,NNE,13,0.0,0.0,94,0.00,,---,0.39,VWS V13.01,2013-08-04 03:20:00,
2013-08-03 23:25:00,77.1,75.2,30.13,NNE,13,0.0,0.0,94,0.00,,---,0.39,VWS V13.01,2013-08-04 03:25:00,
2013-08-03 23:30:00,77.2,75.3,30.13,NNE,13,0.0,0.0,94,0.00,,---,0.39,VWS V13.01,2013-08-04 03:30:00,
2013-08-03 23:35:00,77.2,75.3,30.13,NNE,13,0.0,0.0,94,0.00,,---,0.39,VWS V13.01,2013-08-04 03:35:00,
2013-08-03 23:40:00,77.0,75.1,30.13,NNE,13,0.0,0.0,94,0.00,,---,0.39,VWS V13.01,2013-08-04 03:40:00,
2013-08-03 23:45:00,77.2,75.3,30.13,NNE,13,0.0,0.0,94,0.00,,---,0.39,VWS V13.01,2013-08-04 03:45:00,
2013-08-03 23:51:00,77.1,75.2,30.13,NNE,13,0.0,0.0,94,0.00,,---,0.39,VWS V13.01,2013-08-04 03:51:00,
2013-08-03 23:56:00,77.0,75.1,30.13,NNE,13,0.0,0.0,94,0.00,,---,0.39,VWS V13.01,2013-08-04 03:56:00,